Time;durP1;ratioP1;P1;durP2;ratioP2;P2;SDS_P1;SDS_P2;PMS_P1;PMS_P2;Temp;Humidity;BMP_temperature;BMP_pressure;BME280_temperature;BME280_humidity;BME280_pressure;Samples;Min_cycle;Max_cycle;Signal;HPM_P1;HPM_P2
2022/08/18 00:02:29;;;;;;;7.30;6.23;;;;;;;19.76;74.85;99199.97;4962800;28;20490;-71
2022/08/18 00:04:55;;;;;;;9.17;6.43;;;;;;;19.70;75.00;99200.66;4963104;28;20568;-71
2022/08/18 00:07:24;;;;;;;8.03;6.17;;;;;;;19.63;75.17;99192.47;4962383;28;20471;-72
2022/08/18 00:09:50;;;;;;;10.13;7.13;;;;;;;19.60;75.38;99200.75;4963350;28;20589;-72
2022/08/18 00:12:18;;;;;;;7.53;6.67;;;;;;;19.59;75.50;99196.44;4961629;28;21264;-72
2022/08/18 00:14:45;;;;;;;7.73;6.30;;;;;;;19.56;75.64;99196.78;4964287;28;20240;-71
2022/08/18 00:17:11;;;;;;;6.43;5.83;;;;;;;19.53;75.48;99199.78;4963110;28;20973;-71
2022/08/18 00:19:38;;;;;;;8.43;6.07;;;;;;;19.50;75.50;99194.78;4961267;28;20475;-71
2022/08/18 00:22:03;;;;;;;7.17;6.10;;;;;;;19.50;75.49;99188.63;4964574;28;20475;-72
2022/08/18 00:24:30;;;;;;;7.00;6.13;;;;;;;19.46;75.21;99186.28;4963516;28;20480;-72
2022/08/18 00:26:56;;;;;;;7.17;6.30;;;;;;;19.37;75.47;99173.13;4962333;28;21125;-71
2022/08/18 00:29:22;;;;;;;6.43;5.70;;;;;;;19.34;75.51;99166.28;4962782;28;20967;-71
2022/08/18 00:31:48;;;;;;;9.17;6.23;;;;;;;19.35;75.89;99156.47;4969510;28;20484;-71
2022/08/18 00:34:13;;;;;;;7.03;5.43;;;;;;;19.35;75.67;99149.31;4979932;28;20536;-74
2022/08/18 00:36:38;;;;;;;7.17;6.07;;;;;;;19.32;75.54;99139.00;4981240;28;20199;-74
2022/08/18 00:39:04;;;;;;;7.60;6.33;;;;;;;19.30;75.48;99148.13;4983331;28;20230;-74
2022/08/18 00:41:29;;;;;;;7.07;5.50;;;;;;;19.32;75.35;99148.81;4981988;28;20232;-74
2022/08/18 00:43:57;;;;;;;5.63;5.03;;;;;;;19.34;75.36;99152.16;4980670;28;20208;-74
2022/08/18 00:46:28;;;;;;;7.60;6.17;;;;;;;19.37;75.53;99165.13;4979640;28;20263;-74
2022/08/18 00:48:54;;;;;;;9.53;6.00;;;;;;;19.40;75.33;99159.47;4981929;28;20464;-74
2022/08/18 00:51:28;;;;;;;5.53;4.97;;;;;;;19.42;75.24;99157.50;4983795;28;20489;-74
2022/08/18 00:54:14;;;;;;;6.87;5.20;;;;;;;19.43;75.09;99154.63;4980358;28;20441;-74
2022/08/18 00:56:46;;;;;;;6.70;5.37;;;;;;;19.42;75.18;99162.81;4979081;28;20451;-74
2022/08/18 00:59:30;;;;;;;6.80;5.50;;;;;;;19.38;75.10;99164.13;4983480;28;20466;-74
2022/08/18 01:02:01;;;;;;;6.17;5.63;;;;;;;19.34;75.18;99163.63;4983219;28;20475;-74
2022/08/18 01:04:34;;;;;;;5.97;4.50;;;;;;;19.32;74.93;99167.47;4980960;28;20529;-74
2022/08/18 01:07:06;;;;;;;6.23;5.60;;;;;;;19.27;75.15;99167.13;4980372;28;20504;-74
2022/08/18 01:09:31;;;;;;;5.80;5.30;;;;;;;19.21;75.27;99166.75;4982860;28;20462;-74
2022/08/18 01:11:56;;;;;;;6.30;5.70;;;;;;;19.20;75.35;99162.44;4982757;28;20483;-74
2022/08/18 01:14:23;;;;;;;7.10;5.50;;;;;;;19.22;75.15;99157.78;4983016;28;20204;-74
2022/08/18 01:22:31;;;;;;;7.80;5.00;;;;;;;19.30;75.03;99151.63;4983004;28;20491;-74
2022/08/18 01:27:44;;;;;;;5.10;4.57;;;;;;;19.24;74.83;99150.47;4981882;28;20452;-74
2022/08/18 01:30:13;;;;;;;5.03;4.20;;;;;;;19.23;74.89;99145.31;4980869;28;20493;-74
2022/08/18 01:32:40;;;;;;;6.20;5.43;;;;;;;19.18;74.52;99144.97;4981828;28;20242;-74
2022/08/18 01:35:10;;;;;;;6.17;4.73;;;;;;;19.17;74.60;99133.50;4980834;28;20816;-74
2022/08/18 01:37:36;;;;;;;7.57;5.17;;;;;;;19.12;74.74;99132.28;4979841;28;20534;-74
2022/08/18 01:40:06;;;;;;;6.43;4.80;;;;;;;19.10;74.98;99136.97;4981771;28;20453;-74
2022/08/18 01:42:32;;;;;;;5.87;5.27;;;;;;;19.11;74.80;99136.78;4982699;28;20256;-74
2022/08/18 01:44:58;;;;;;;7.10;4.93;;;;;;;19.12;74.56;99133.16;4979636;28;21055;-74
2022/08/18 01:47:23;;;;;;;5.13;4.57;;;;;;;19.11;74.71;99135.97;4980565;28;20481;-74
2022/08/18 01:49:49;;;;;;;7.13;5.60;;;;;;;19.13;74.28;99142.78;4981391;28;20201;-74
2022/08/18 01:52:19;;;;;;;5.63;5.03;;;;;;;19.17;74.43;99138.81;4983049;28;20603;-74
2022/08/18 01:54:49;;;;;;;5.80;5.23;;;;;;;19.18;74.29;99135.16;4979091;28;20199;-74
2022/08/18 01:57:15;;;;;;;5.53;5.00;;;;;;;19.16;74.35;99131.81;4980543;28;20570;-74
2022/08/18 01:59:41;;;;;;;7.80;5.00;;;;;;;19.07;74.69;99124.81;4981260;28;20955;-74
2022/08/18 02:02:08;;;;;;;5.90;4.93;;;;;;;19.04;74.50;99122.50;4964706;28;20664;-74
2022/08/18 02:04:35;;;;;;;5.87;5.27;;;;;;;19.02;74.57;99130.63;4961459;28;20595;-74
2022/08/18 02:07:02;;;;;;;5.47;4.93;;;;;;;19.02;74.92;99124.47;4960815;28;20967;-74
2022/08/18 02:09:28;;;;;;;5.97;4.63;;;;;;;19.05;74.97;99126.81;4979685;28;20522;-74
2022/08/18 02:11:54;;;;;;;6.37;4.93;;;;;;;19.05;74.86;99121.47;4982339;28;20479;-74
2022/08/18 02:14:19;;;;;;;5.70;5.20;;;;;;;19.03;74.64;99115.47;4980426;28;20220;-74
2022/08/18 02:16:44;;;;;;;6.10;4.53;;;;;;;19.00;74.59;99116.66;4967884;28;20492;-74
2022/08/18 02:19:11;;;;;;;5.60;5.10;;;;;;;19.00;74.79;99113.97;4962246;28;20248;-74
2022/08/18 02:21:37;;;;;;;7.27;5.07;;;;;;;19.00;75.00;99118.47;4963152;28;20311;-74
2022/08/18 02:24:03;;;;;;;7.17;4.70;;;;;;;19.01;75.01;99117.50;4963186;28;21027;-74
2022/08/18 02:26:28;;;;;;;6.00;4.93;;;;;;;18.96;74.99;99111.84;4961726;28;20488;-74
2022/08/18 02:28:54;;;;;;;5.70;5.10;;;;;;;18.92;75.09;99113.13;4956154;28;20631;-74
2022/08/18 02:31:23;;;;;;;5.50;4.37;;;;;;;18.90;75.30;99107.13;4962901;28;20228;-74
2022/08/18 02:33:49;;;;;;;4.80;4.40;;;;;;;18.87;75.31;99107.47;4961539;28;20204;-74
2022/08/18 02:36:15;;;;;;;6.40;4.27;;;;;;;18.83;75.48;99104.31;4961303;28;20463;-74
2022/08/18 02:38:41;;;;;;;7.03;4.80;;;;;;;18.79;75.88;99109.13;4962068;28;20533;-74
2022/08/18 02:41:09;;;;;;;5.30;4.27;;;;;;;18.79;75.73;99098.50;4967109;28;20527;-74
2022/08/18 02:43:35;;;;;;;5.70;4.70;;;;;;;18.81;75.75;99103.63;4964823;28;20445;-74
2022/08/18 02:46:01;;;;;;;7.33;4.53;;;;;;;18.85;75.72;99104.13;4966420;28;20489;-74
2022/08/18 02:48:35;;;;;;;5.87;4.80;;;;;;;18.84;75.53;99095.31;4963600;28;20562;-74
2022/08/18 02:51:05;;;;;;;6.77;4.50;;;;;;;18.87;75.74;99089.66;4964203;28;20229;-74
2022/08/18 02:53:32;;;;;;;6.40;5.70;;;;;;;18.90;75.55;99085.84;4963561;28;20460;-74
2022/08/18 02:58:47;;;;;;;5.03;4.60;;;;;;;18.86;75.71;99084.53;4964749;28;20454;-74
2022/08/18 03:01:13;;;;;;;7.10;5.40;;;;;;;18.82;76.10;99080.50;4963119;28;20808;-74
2022/08/18 03:03:38;;;;;;;5.33;4.83;;;;;;;18.78;75.88;99083.50;4960223;28;20955;-74
2022/08/18 03:06:04;;;;;;;4.30;3.90;;;;;;;18.76;76.29;99080.16;4964366;28;20243;-74
2022/08/18 03:08:31;;;;;;;6.83;4.83;;;;;;;18.75;76.14;99075.84;4965665;28;20271;-74
2022/08/18 03:10:57;;;;;;;5.57;4.30;;;;;;;18.71;76.32;99079.81;4964995;28;20459;-74
2022/08/18 03:13:22;;;;;;;5.40;4.77;;;;;;;18.71;76.47;99077.16;4966515;28;20450;-74
2022/08/18 03:15:47;;;;;;;5.50;4.87;;;;;;;18.70;76.10;99080.78;4965866;28;21011;-74
2022/08/18 03:18:13;;;;;;;5.70;4.87;;;;;;;18.72;76.27;99077.97;4965194;28;20214;-74
2022/08/18 03:20:38;;;;;;;9.00;5.73;;;;;;;18.73;76.22;99061.84;4964635;28;20201;-74
2022/08/18 03:23:04;;;;;;;6.30;5.70;;;;;;;18.75;76.10;99067.03;4964029;28;20333;-74
2022/08/18 03:25:30;;;;;;;5.93;4.67;;;;;;;18.70;76.36;99064.84;4964174;28;20246;-74
2022/08/18 03:27:55;;;;;;;7.40;5.40;;;;;;;18.72;76.40;99064.69;4962384;28;20195;-74
2022/08/18 03:30:22;;;;;;;5.87;5.23;;;;;;;18.72;76.41;99070.84;4960304;28;20439;-74
2022/08/18 03:32:48;;;;;;;5.43;4.80;;;;;;;18.72;76.16;99067.34;4951823;28;20936;-74
2022/08/18 03:35:15;;;;;;;6.30;4.70;;;;;;;18.73;76.11;99058.34;4960620;28;20460;-74
2022/08/18 03:37:40;;;;;;;6.63;5.07;;;;;;;18.70;76.65;99067.50;4959066;28;20489;-74
2022/08/18 03:40:06;;;;;;;4.87;4.10;;;;;;;18.72;76.30;99072.66;4959231;28;20503;-75
2022/08/18 03:42:32;;;;;;;5.47;4.87;;;;;;;18.68;76.66;99066.81;4958224;28;20227;-76
2022/08/18 03:44:57;;;;;;;8.63;5.03;;;;;;;18.64;76.83;99064.66;4958178;28;20481;-75
2022/08/18 03:47:23;;;;;;;6.77;5.70;;;;;;;18.62;77.10;99070.13;4963138;28;20284;-75
2022/08/18 03:49:48;;;;;;;7.70;6.13;;;;;;;18.61;77.14;99071.13;4976225;28;20220;-75
2022/08/18 03:52:14;;;;;;;7.93;5.60;;;;;;;18.57;77.26;99077.75;4961870;28;20220;-75
2022/08/18 03:54:40;;;;;;;6.07;5.20;;;;;;;18.56;77.41;99087.56;4963202;28;20936;-75
2022/08/18 03:57:11;;;;;;;7.40;6.10;;;;;;;18.51;77.80;99089.88;4964977;28;20728;-75
2022/08/18 03:59:38;;;;;;;6.97;5.00;;;;;;;18.49;77.90;99093.69;4960451;28;20471;-75
2022/08/18 04:02:04;;;;;;;8.60;5.20;;;;;;;18.47;78.14;99091.22;4961133;28;20987;-76
2022/08/18 04:04:29;;;;;;;6.73;4.50;;;;;;;18.44;78.35;99102.16;4964479;28;20460;-74
2022/08/18 04:07:03;;;;;;;7.33;4.70;;;;;;;18.42;78.47;99108.66;4964959;28;20212;-75
2022/08/18 04:09:29;;;;;;;8.60;5.00;;;;;;;18.38;78.61;99102.78;4965467;28;20219;-74
2022/08/18 04:11:56;;;;;;;7.00;4.20;;;;;;;18.34;78.70;99106.78;4963902;28;20487;-76
2022/08/18 04:14:24;;;;;;;5.50;5.10;;;;;;;18.33;78.73;99107.75;4963230;28;20455;-75
2022/08/18 04:16:49;;;;;;;7.10;5.00;;;;;;;18.33;78.98;99111.28;4962062;28;20809;-75
2022/08/18 04:19:16;;;;;;;5.50;4.97;;;;;;;18.34;79.08;99104.94;4964842;28;20973;-75
2022/08/18 04:21:43;;;;;;;5.67;4.30;;;;;;;18.39;78.66;99116.91;4963718;28;20237;-76
2022/08/18 04:24:11;;;;;;;8.43;4.80;;;;;;;18.39;78.86;99111.59;4959434;28;20448;-75
2022/08/18 04:26:42;;;;;;;5.73;5.17;;;;;;;18.38;78.84;99112.59;4961576;28;20575;-77
2022/08/18 04:29:09;;;;;;;6.43;4.97;;;;;;;18.41;78.96;99109.63;4958723;28;20468;-75
2022/08/18 04:31:35;;;;;;;7.60;5.37;;;;;;;18.41;78.79;99104.31;4960313;28;20563;-74
2022/08/18 04:34:01;;;;;;;7.43;6.03;;;;;;;18.42;78.70;99111.31;4961300;28;20566;-75
2022/08/18 04:36:29;;;;;;;5.63;5.13;;;;;;;18.36;78.98;99104.78;4962964;28;20210;-76
2022/08/18 04:38:55;;;;;;;6.23;4.90;;;;;;;18.35;78.95;99109.25;4960887;28;20819;-75
2022/08/18 04:41:25;;;;;;;7.03;3.50;;;;;;;18.34;79.02;99104.94;4963887;28;20545;-75
2022/08/18 04:43:51;;;;;;;4.60;4.20;;;;;;;18.32;79.18;99112.25;4961717;28;20458;-74
2022/08/18 04:46:17;;;;;;;5.10;4.60;;;;;;;18.30;79.27;99111.56;4962400;28;20489;-75
2022/08/18 04:48:42;;;;;;;5.97;5.33;;;;;;;18.32;79.11;99125.53;4961013;28;20457;-76
2022/08/18 04:51:11;;;;;;;5.57;4.77;;;;;;;18.33;79.32;99126.38;4963573;28;20216;-76
2022/08/18 04:53:46;;;;;;;5.97;5.37;;;;;;;18.35;79.13;99127.88;4961546;28;20460;-75
2022/08/18 04:56:26;;;;;;;5.53;4.90;;;;;;;18.41;79.05;99133.56;4962167;28;20939;-76
2022/08/18 04:58:57;;;;;;;4.70;4.30;;;;;;;18.48;78.91;99126.63;4963425;28;20450;-76
2022/08/18 05:01:25;;;;;;;6.20;5.60;;;;;;;18.57;78.76;99125.63;4960307;28;20476;-75
2022/08/18 05:03:52;;;;;;;6.10;5.43;;;;;;;18.63;78.62;99122.31;4962485;28;20445;-75
2022/08/18 05:06:19;;;;;;;6.70;5.10;;;;;;;18.66;78.42;99119.38;4958380;28;20470;-75
2022/08/18 05:08:48;;;;;;;8.80;5.30;;;;;;;18.66;78.43;99122.03;4961024;28;20464;-75
2022/08/18 05:11:14;;;;;;;5.73;5.20;;;;;;;18.67;78.35;99118.38;4963692;28;20422;-75
2022/08/18 05:13:40;;;;;;;6.30;4.90;;;;;;;18.70;78.60;99117.22;4963262;28;20465;-75
2022/08/18 05:16:05;;;;;;;5.67;5.10;;;;;;;18.73;78.38;99122.22;4960918;28;20628;-75
2022/08/18 05:18:37;;;;;;;7.10;6.40;;;;;;;18.76;78.24;99111.28;4961138;28;20533;-75
2022/08/18 05:21:03;;;;;;;5.37;4.83;;;;;;;18.79;78.09;99108.28;4962016;28;20227;-75
2022/08/18 05:23:29;;;;;;;5.13;4.63;;;;;;;18.79;77.81;99102.97;4963517;28;20418;-74
2022/08/18 05:26:00;;;;;;;4.53;4.13;;;;;;;18.79;77.96;99094.97;4960248;28;20583;-72
2022/08/18 05:28:25;;;;;;;7.87;4.57;;;;;;;18.81;78.25;99098.31;4960754;28;20464;-75
2022/08/18 05:30:51;;;;;;;8.70;5.97;;;;;;;18.86;78.04;99089.84;4962821;28;20933;-76
2022/08/18 05:33:17;;;;;;;5.10;4.60;;;;;;;18.88;78.06;99083.38;4971777;23;20288;-80
2022/08/18 05:35:49;;;;;;;6.23;5.63;;;;;;;18.90;78.02;99085.84;4955218;28;20483;-79
2022/08/18 05:38:38;;;;;;;5.53;4.90;;;;;;;18.93;77.91;99082.84;4962931;28;20172;-83
2022/08/18 05:41:07;;;;;;;6.83;5.20;;;;;;;18.92;77.93;99082.03;4964761;28;20972;-79
2022/08/18 05:43:33;;;;;;;5.47;4.87;;;;;;;18.92;78.19;99087.34;4963430;28;20568;-81
2022/08/18 05:46:01;;;;;;;6.80;5.30;;;;;;;18.93;78.15;99083.72;4962824;28;20481;-79
2022/08/18 05:48:26;;;;;;;8.17;4.83;;;;;;;18.97;78.05;99095.69;4961907;28;20948;-81
2022/08/18 05:50:55;;;;;;;6.13;4.37;;;;;;;18.98;77.71;99104.50;4963225;28;20444;-82
2022/08/18 05:56:45;;;;;;;5.53;4.90;;;;;;;18.99;77.95;99116.81;4954598;28;20212;-78
2022/08/18 05:58:56;;;;;;;5.43;4.77;;;;;;;18.99;77.88;99132.78;4962305;28;20603;-80
2022/08/18 06:01:25;;;;;;;6.37;4.80;;;;;;;18.97;78.02;99137.44;4960112;28;20463;-80
2022/08/18 06:03:58;;;;;;;6.27;5.67;;;;;;;18.98;78.01;99144.41;4983201;28;20553;-79
2022/08/18 06:06:29;;;;;;;6.70;6.00;;;;;;;18.98;78.13;99147.06;4983888;28;20569;-80
2022/08/18 06:09:10;;;;;;;7.03;5.90;;;;;;;18.99;78.10;99148.75;4982668;28;20446;-81
2022/08/18 06:11:35;;;;;;;7.07;6.37;;;;;;;19.00;78.26;99140.59;4990624;28;20409;-81
2022/08/18 06:14:01;;;;;;;6.13;5.53;;;;;;;18.99;78.54;99133.63;4995413;28;20444;-81
2022/08/18 06:16:41;;;;;;;6.43;5.83;;;;;;;18.99;78.26;99136.28;4994998;28;20239;-80
2022/08/18 06:19:28;;;;;;;8.57;6.93;;;;;;;19.01;78.49;99134.28;4993260;28;20188;-76
2022/08/18 06:22:19;;;;;;;7.27;6.57;;;;;;;19.05;78.35;99160.59;4994077;28;20957;-77
2022/08/18 06:25:22;;;;;;;8.13;6.73;;;;;;;19.08;78.37;99154.94;4990253;28;20468;-77
2022/08/18 06:28:06;;;;;;;8.30;6.70;;;;;;;19.11;78.43;99173.22;4992126;28;20461;-78
2022/08/18 06:30:40;;;;;;;6.90;5.90;;;;;;;19.14;78.30;99178.22;4995331;28;20425;-78
2022/08/18 06:33:24;;;;;;;7.27;6.47;;;;;;;19.13;78.23;99182.72;4994220;28;20464;-78
2022/08/18 06:35:59;;;;;;;6.53;5.70;;;;;;;19.12;78.41;99189.06;4990053;28;20447;-79
2022/08/18 06:38:44;;;;;;;7.43;6.00;;;;;;;19.07;78.51;99193.22;4990183;28;20429;-79
2022/08/18 06:41:37;;;;;;;8.40;6.37;;;;;;;19.02;78.76;99191.03;4991208;28;20523;-79
2022/08/18 06:44:28;;;;;;;6.87;6.10;;;;;;;19.02;78.70;99191.03;4973540;28;20481;-78
2022/08/18 06:47:15;;;;;;;7.43;5.63;;;;;;;19.00;78.90;99195.66;4990133;28;20454;-78
2022/08/18 06:49:44;;;;;;;6.53;5.77;;;;;;;18.98;78.77;99185.19;4989612;28;20458;-78
2022/08/18 06:52:32;;;;;;;7.43;6.80;;;;;;;19.00;78.81;99185.03;4991724;28;20451;-77
2022/08/18 06:55:08;;;;;;;7.63;6.83;;;;;;;19.00;78.66;99171.72;4991639;28;20439;-77
2022/08/18 06:57:51;;;;;;;8.43;6.10;;;;;;;18.96;78.95;99165.06;4992133;28;20582;-78
2022/08/18 07:00:16;;;;;;;6.90;6.00;;;;;;;18.91;79.06;99157.56;4976896;28;20788;-80
2022/08/18 07:02:51;;;;;;;12.10;7.47;;;;;;;18.89;79.25;99148.88;4992904;28;20436;-79
2022/08/18 07:05:21;;;;;;;7.47;6.77;;;;;;;18.92;79.30;99161.03;4990913;28;20218;-78
2022/08/18 07:08:05;;;;;;;9.00;8.10;;;;;;;18.98;79.31;99165.72;4991692;28;20576;-78
2022/08/18 07:10:35;;;;;;;7.63;6.83;;;;;;;19.04;79.31;99166.88;4987408;28;20450;-79
2022/08/18 07:13:13;;;;;;;7.97;7.17;;;;;;;19.13;78.89;99169.41;4980596;28;20525;-77
2022/08/18 07:15:44;;;;;;;7.93;7.07;;;;;;;19.22;78.72;99165.75;4991015;28;20525;-78
2022/08/18 07:18:11;;;;;;;10.63;7.93;;;;;;;19.21;78.94;99160.63;4987624;28;20794;-80
2022/08/18 07:20:46;;;;;;;7.87;7.00;;;;;;;19.22;78.77;99165.75;4984785;28;20438;-79
2022/08/18 07:23:24;;;;;;;8.40;6.33;;;;;;;19.22;78.76;99160.44;4986505;28;20495;-79
2022/08/18 07:25:58;;;;;;;9.73;6.90;;;;;;;19.27;79.05;99159.13;4985071;28;20446;-79
2022/08/18 07:28:43;;;;;;;7.00;6.30;;;;;;;19.33;78.96;99145.13;4987634;28;20442;-80
2022/08/18 07:31:48;;;;;;;9.20;5.93;;;;;;;19.33;78.31;99150.47;4983230;28;20456;-79
2022/08/18 07:34:20;;;;;;;8.50;7.63;;;;;;;19.35;78.44;99162.63;4985775;28;20532;-79
2022/08/18 07:37:04;;;;;;;8.40;7.50;;;;;;;19.37;78.36;99176.63;4984316;28;20219;-79
2022/08/18 07:39:31;;;;;;;6.00;5.43;;;;;;;19.42;78.35;99178.78;4986481;28;20455;-80
2022/08/18 07:42:17;;;;;;;6.77;6.10;;;;;;;19.50;78.08;99175.31;4986062;28;20487;-80
2022/08/18 07:44:59;;;;;;;7.23;5.80;;;;;;;19.58;77.70;99175.31;4986566;28;20451;-79
2022/08/18 07:47:33;;;;;;;8.00;6.10;;;;;;;19.67;77.63;99188.47;4985266;28;20461;-79
2022/08/18 07:50:00;;;;;;;6.50;5.90;;;;;;;19.76;77.45;99196.47;4985447;28;20486;-79
2022/08/18 07:52:31;;;;;;;6.40;5.80;;;;;;;19.83;77.08;99200.97;4988327;28;20481;-79
2022/08/18 07:55:19;;;;;;;8.17;7.37;;;;;;;19.90;76.84;99209.13;4989394;28;20979;-79
2022/08/18 07:58:03;;;;;;;6.87;6.17;;;;;;;19.94;76.58;99190.97;4987957;28;20471;-78
2022/08/18 08:00:53;;;;;;;8.90;6.67;;;;;;;19.99;76.42;99172.66;4987748;28;20476;-79
2022/08/18 08:03:37;;;;;;;7.20;6.50;;;;;;;20.03;76.22;99161.47;4991533;28;20521;-78
2022/08/18 08:06:17;;;;;;;8.17;6.80;;;;;;;20.10;76.03;99177.63;4996728;28;20541;-78
2022/08/18 08:09:07;;;;;;;8.60;7.70;;;;;;;20.13;75.85;99209.28;4990790;28;20442;-78
2022/08/18 08:11:38;;;;;;;7.37;6.57;;;;;;;20.18;75.95;99219.47;4982107;28;20443;-80
2022/08/18 08:14:38;;;;;;;10.47;8.30;;;;;;;20.22;75.79;99204.78;4991698;28;20472;-77
2022/08/18 08:17:12;;;;;;;9.30;7.00;;;;;;;20.18;75.70;99184.78;4993823;28;20445;-79
2022/08/18 08:19:45;;;;;;;9.83;6.90;;;;;;;20.20;75.75;99172.09;4990308;28;20437;-79
2022/08/18 08:22:18;;;;;;;8.27;7.40;;;;;;;20.26;75.70;99156.25;4990052;28;21057;-79
2022/08/18 08:25:22;;;;;;;8.37;7.57;;;;;;;20.41;74.82;99156.38;4992547;28;20437;-78
2022/08/18 08:28:06;;;;;;;8.53;7.73;;;;;;;20.59;74.58;99158.03;4989456;28;20450;-78
2022/08/18 08:30:35;;;;;;;8.97;7.70;;;;;;;20.71;74.15;99145.94;4987166;28;20486;-79
2022/08/18 08:33:24;;;;;;;8.43;7.50;;;;;;;20.81;73.74;99138.56;4989964;28;20717;-79
2022/08/18 08:35:59;;;;;;;9.70;7.83;;;;;;;20.86;73.39;99125.53;4990499;28;20435;-79
2022/08/18 08:38:50;;;;;;;7.23;6.53;;;;;;;20.89;73.18;99121.66;4991160;28;20528;-79
2022/08/18 08:41:34;;;;;;;8.50;6.93;;;;;;;20.89;73.17;99132.34;4979716;28;20547;-79
2022/08/18 08:44:31;;;;;;;8.83;7.33;;;;;;;20.85;73.23;99131.88;4990005;28;20528;-80
2022/08/18 08:47:03;;;;;;;8.90;6.87;;;;;;;20.81;73.56;99132.41;4987031;28;20420;-80
2022/08/18 08:49:47;;;;;;;8.57;7.70;;;;;;;20.82;73.77;99124.22;4985796;28;20443;-79
2022/08/18 08:52:23;;;;;;;8.67;7.73;;;;;;;20.82;73.69;99116.22;4986386;28;21291;-79
2022/08/18 08:54:55;;;;;;;8.20;6.47;;;;;;;20.80;73.67;99106.72;4989257;28;20982;-79
2022/08/18 08:57:28;;;;;;;7.87;7.07;;;;;;;20.71;73.97;99114.78;4991322;28;20437;-80
2022/08/18 08:59:57;;;;;;;10.20;7.30;;;;;;;20.63;74.15;99117.47;4987182;28;20447;-79
2022/08/18 09:02:34;;;;;;;8.20;7.40;;;;;;;20.63;74.39;99127.31;4987823;28;20459;-80
2022/08/18 09:05:15;;;;;;;10.87;7.87;;;;;;;20.62;74.64;99121.13;4987889;28;20499;-79
2022/08/18 09:08:06;;;;;;;7.23;6.53;;;;;;;20.62;74.80;99126.47;4989627;28;20463;-79
2022/08/18 09:11:05;;;;;;;10.40;7.50;;;;;;;20.65;74.78;99139.47;4988263;28;20398;-80
2022/08/18 09:13:49;;;;;;;9.07;7.90;;;;;;;20.70;74.70;99158.47;4984858;28;20434;-76
2022/08/18 09:16:52;;;;;;;7.10;5.80;;;;;;;20.71;74.61;99170.81;4987069;28;20877;-78
2022/08/18 09:20:15;;;;;;;8.57;7.67;;;;;;;20.71;74.51;99173.50;4987188;28;20403;-78
2022/08/18 09:22:52;;;;;;;8.00;7.20;;;;;;;20.64;74.67;99182.34;4907115;29;21149;-79
2022/08/18 09:25:59;;;;;;;7.20;6.50;;;;;;;20.55;74.91;99182.38;4908543;29;20540;-79
2022/08/18 09:28:27;;;;;;;8.00;7.07;;;;;;;20.52;75.04;99184.50;4941810;29;20451;-77
2022/08/18 09:31:02;;;;;;;8.60;7.70;;;;;;;20.51;75.10;99175.69;4979224;28;20442;-77
2022/08/18 09:33:41;;;;;;;8.90;7.90;;;;;;;20.55;75.13;99178.91;4986009;28;20663;-77
2022/08/18 09:36:18;;;;;;;7.70;7.00;;;;;;;20.57;75.16;99171.53;4986156;28;20505;-78
2022/08/18 09:42:13;;;;;;;9.30;7.60;;;;;;;20.64;74.87;99161.84;4999149;28;20577;-78
2022/08/18 09:44:47;;;;;;;6.87;6.23;;;;;;;20.72;74.79;99151.13;4999197;28;20881;-77
2022/08/18 09:47:24;;;;;;;16.33;9.13;;;;;;;20.79;74.66;99151.25;5006338;28;20453;-79
2022/08/18 09:49:54;;;;;;;9.50;6.50;;;;;;;20.85;74.32;99141.72;4980987;28;20725;-79
2022/08/18 09:52:20;;;;;;;8.60;7.03;;;;;;;20.91;74.22;99128.50;4981055;28;20458;-79
2022/08/18 09:54:59;;;;;;;8.43;5.90;;;;;;;20.96;73.87;99120.78;4980553;28;20456;-77
2022/08/18 09:57:35;;;;;;;6.80;6.10;;;;;;;20.98;73.86;99116.13;4979778;28;20743;-78
2022/08/18 10:00:13;;;;;;;7.00;6.30;;;;;;;21.04;73.75;99116.44;4980575;28;20421;-77
2022/08/18 10:02:42;;;;;;;8.70;6.87;;;;;;;21.10;73.64;99108.53;4983999;28;20510;-78
2022/08/18 10:05:19;;;;;;;7.20;6.50;;;;;;;21.18;73.46;99094.28;4983827;28;21079;-78
2022/08/18 10:08:04;;;;;;;6.50;4.87;;;;;;;21.24;73.02;99098.06;4983474;28;20471;-78
2022/08/18 10:10:42;;;;;;;6.03;5.43;;;;;;;21.25;72.51;99105.06;4979979;28;20510;-78
2022/08/18 10:13:22;;;;;;;6.20;5.00;;;;;;;21.26;72.19;99102.22;4979687;28;20462;-79
2022/08/18 10:16:16;;;;;;;6.37;5.57;;;;;;;21.32;72.15;99088.16;4980050;28;20451;-79
2022/08/18 10:18:55;;;;;;;6.83;5.53;;;;;;;21.38;71.90;99090.13;4983564;28;20441;-78
2022/08/18 10:21:27;;;;;;;5.90;5.30;;;;;;;21.48;71.73;99083.72;4982451;28;20401;-78
2022/08/18 10:24:02;;;;;;;7.30;6.60;;;;;;;21.58;71.13;99084.31;4981797;28;20416;-78
2022/08/18 10:26:30;;;;;;;7.80;6.33;;;;;;;21.66;70.89;99081.56;4982303;28;20447;-78
2022/08/18 10:29:00;;;;;;;6.23;5.53;;;;;;;21.72;70.52;99071.97;4983174;28;20431;-79
2022/08/18 10:31:27;;;;;;;6.77;5.97;;;;;;;21.74;70.44;99080.63;4979283;28;20470;-79
2022/08/18 10:34:08;;;;;;;6.37;5.77;;;;;;;21.79;70.57;99095.13;4973989;28;20451;-77
2022/08/18 10:36:49;;;;;;;6.63;5.93;;;;;;;21.82;70.39;99102.78;4966332;28;20452;-77
2022/08/18 10:39:19;;;;;;;6.73;6.10;;;;;;;21.82;69.57;99104.63;4971252;28;20424;-78
2022/08/18 10:41:56;;;;;;;8.80;6.40;;;;;;;21.80;69.85;99104.78;4971621;28;20463;-78
2022/08/18 10:44:23;;;;;;;6.83;6.13;;;;;;;21.80;69.69;99107.47;4971109;28;20509;-78
2022/08/18 10:46:51;;;;;;;7.00;6.27;;;;;;;21.86;69.97;99104.06;4969316;28;20454;-80
2022/08/18 10:49:24;;;;;;;9.33;6.07;;;;;;;21.95;69.22;99096.78;4965012;28;20443;-78
2022/08/18 10:51:59;;;;;;;9.67;6.20;;;;;;;22.01;69.17;99090.72;4972653;28;20462;-78
2022/08/18 10:55:08;;;;;;;6.67;5.97;;;;;;;22.06;69.16;99084.78;4969259;28;20586;-78
2022/08/18 10:58:10;;;;;;;6.13;5.53;;;;;;;22.24;68.57;99076.44;4972263;28;20492;-77
2022/08/18 11:01:07;;;;;;;7.53;6.03;;;;;;;22.40;67.85;99073.56;4971964;28;20779;-79
2022/08/18 11:03:35;;;;;;;8.10;5.70;;;;;;;22.49;67.54;99063.56;4973838;28;20811;-78
2022/08/18 11:06:08;;;;;;;6.17;5.57;;;;;;;22.61;67.53;99064.75;4977107;28;20478;-78
2022/08/18 11:08:44;;;;;;;7.53;6.83;;;;;;;22.73;67.05;99057.03;4974585;28;20479;-79
2022/08/18 11:11:11;;;;;;;7.77;5.73;;;;;;;22.72;66.52;99052.72;4974191;28;20586;-79
2022/08/18 11:13:48;;;;;;;6.10;5.60;;;;;;;22.71;66.50;99046.53;4976755;28;20535;-78
2022/08/18 11:16:27;;;;;;;6.17;5.57;;;;;;;22.72;66.55;99029.44;4974629;28;20455;-78
2022/08/18 11:19:02;;;;;;;8.50;6.97;;;;;;;22.83;66.57;99030.78;4971083;28;20439;-77
2022/08/18 11:21:36;;;;;;;8.33;6.53;;;;;;;22.96;66.11;99017.56;4972282;28;20414;-78
2022/08/18 11:24:02;;;;;;;9.17;6.17;;;;;;;23.07;65.81;99013.53;4974458;28;20452;-78
2022/08/18 11:26:33;;;;;;;8.93;5.97;;;;;;;23.16;65.62;99009.69;4973794;28;20487;-81
2022/08/18 11:29:22;;;;;;;7.13;5.67;;;;;;;23.23;65.91;99009.75;4972688;28;20211;-78
2022/08/18 11:31:59;;;;;;;6.63;5.93;;;;;;;23.29;65.44;99000.94;4966337;28;20504;-77
2022/08/18 11:34:41;;;;;;;6.00;5.40;;;;;;;23.31;65.47;99012.31;5009049;23;20514;-76
2022/08/18 11:37:20;;;;;;;7.57;6.87;;;;;;;23.32;65.34;99018.47;4952303;28;20540;-77
2022/08/18 11:39:49;;;;;;;5.80;5.00;;;;;;;23.31;65.18;99025.69;4957581;28;20463;-79
2022/08/18 11:42:17;;;;;;;6.23;5.63;;;;;;;23.31;64.96;99022.19;4959235;28;20532;-77
2022/08/18 11:44:42;;;;;;;6.03;5.47;;;;;;;23.34;64.75;99013.78;4960360;28;20512;-76
2022/08/18 11:47:19;;;;;;;9.70;5.20;;;;;;;23.46;64.80;99009.50;4959363;28;20461;-76
2022/08/18 11:49:53;;;;;;;5.70;5.20;;;;;;;23.58;64.10;99007.97;4957716;28;20224;-77
2022/08/18 11:52:28;;;;;;;5.37;4.80;;;;;;;23.73;63.84;99004.34;4959014;28;20446;-76
2022/08/18 11:55:03;;;;;;;6.03;5.53;;;;;;;23.90;63.08;99011.06;4960923;28;20452;-77
2022/08/18 11:57:41;;;;;;;6.53;5.70;;;;;;;24.10;62.51;99010.34;4959151;28;20903;-76
2022/08/18 12:00:35;;;;;;;7.23;5.10;;;;;;;24.31;61.79;99012.09;4958643;28;20426;-77
2022/08/18 12:03:07;;;;;;;6.23;5.60;;;;;;;24.43;61.37;99016.66;4956765;28;20942;-76
2022/08/18 12:05:52;;;;;;;5.87;5.37;;;;;;;24.50;60.72;99024.78;4958456;28;20883;-76
2022/08/18 12:08:27;;;;;;;5.83;5.23;;;;;;;24.45;60.76;99019.19;4958787;28;20441;-77
2022/08/18 12:11:14;;;;;;;7.97;7.20;;;;;;;24.39;61.04;99015.41;4956200;28;20485;-76
2022/08/18 12:13:43;;;;;;;10.23;5.23;;;;;;;24.37;61.03;99017.47;4621258;28;10001281;-76
2022/08/18 12:16:13;;;;;;;7.77;6.90;;;;;;;24.41;61.15;99017.88;4961230;28;20199;-76
2022/08/18 12:18:39;;;;;;;6.57;5.33;;;;;;;24.47;61.22;99014.44;4959597;28;20810;-76
2022/08/18 12:21:05;;;;;;;7.07;6.47;;;;;;;24.53;60.97;99010.13;4956351;28;21037;-76